Time;durP1;ratioP1;P1;durP2;ratioP2;P2;SDS_P1;SDS_P2;PMS_P1;PMS_P2;Temp;Humidity;BMP_temperature;BMP_pressure;BME280_temperature;BME280_humidity;BME280_pressure;Samples;Min_cycle;Max_cycle;Signal;HPM_P1;HPM_P2
2024/02/03 00:01:13;;;;;;;17.40;6.10;;;;;;;1.50;100.00;100053.15;87114;273;136799;-76
2024/02/03 00:03:15;;;;;;;14.90;5.90;;;;;;;1.59;100.00;100056.26;87344;270;22522;-75
2024/02/03 00:05:17;;;;;;;11.10;4.50;;;;;;;1.64;100.00;100053.14;87260;273;137055;-74
2024/02/03 00:07:19;;;;;;;14.70;5.40;;;;;;;1.65;100.00;100047.98;87217;269;24225;-74
2024/02/03 00:09:21;;;;;;;12.80;5.80;;;;;;;1.62;100.00;100043.03;87147;265;136014;-73
2024/02/03 00:11:23;;;;;;;18.60;5.60;;;;;;;1.56;100.00;100045.64;86644;266;782842;-72
2024/02/03 00:13:27;;;;;;;17.40;6.70;;;;;;;1.52;100.00;100043.17;87024;270;136651;-73
2024/02/03 00:15:29;;;;;;;15.40;5.60;;;;;;;1.52;100.00;100031.83;87184;273;25174;-74
2024/02/03 00:17:31;;;;;;;13.40;5.20;;;;;;;1.50;100.00;100025.88;87043;269;136192;-76
2024/02/03 00:19:34;;;;;;;11.90;5.80;;;;;;;1.46;100.00;100025.21;87228;269;22551;-75
2024/02/03 00:21:37;;;;;;;13.30;5.70;;;;;;;1.41;100.00;100018.65;87108;270;137147;-74
2024/02/03 00:23:40;;;;;;;10.50;4.50;;;;;;;1.42;100.00;100010.48;87175;274;22581;-76
2024/02/03 00:25:42;;;;;;;13.20;5.40;;;;;;;1.51;100.00;100008.30;87007;267;138012;-76
2024/02/03 00:27:43;;;;;;;12.00;5.00;;;;;;;1.58;100.00;100007.66;87224;271;22578;-76
2024/02/03 00:29:45;;;;;;;10.90;4.30;;;;;;;1.61;100.00;100012.33;87157;273;136600;-73
2024/02/03 00:31:49;;;;;;;8.50;4.60;;;;;;;1.58;100.00;100004.67;87276;268;22568;-75
2024/02/03 00:33:51;;;;;;;14.40;4.50;;;;;;;1.55;100.00;100001.45;87070;274;135977;-74
2024/02/03 00:35:53;;;;;;;11.40;5.60;;;;;;;1.53;100.00;99997.58;87027;270;22557;-75
2024/02/03 00:37:54;;;;;;;10.00;4.70;;;;;;;1.50;100.00;99994.52;87027;270;135836;-74
2024/02/03 00:39:57;;;;;;;14.80;5.60;;;;;;;1.47;100.00;99992.65;87085;266;22534;-73
2024/02/03 00:41:59;;;;;;;16.30;6.50;;;;;;;1.45;100.00;99987.07;87426;260;138708;-73
2024/02/03 00:44:01;;;;;;;10.50;6.60;;;;;;;1.45;100.00;99980.44;87372;265;26316;-74
2024/02/03 00:46:03;;;;;;;12.20;5.10;;;;;;;1.47;100.00;99988.70;87253;273;24480;-72
2024/02/03 00:48:06;;;;;;;16.20;6.20;;;;;;;1.55;100.00;99991.94;87214;268;136863;-72
2024/02/03 00:50:14;;;;;;;15.40;5.60;;;;;;;1.66;100.00;99982.09;87722;269;24206;-73
2024/02/03 00:52:16;;;;;;;12.00;5.10;;;;;;;1.72;100.00;99981.27;87391;276;137397;-74
2024/02/03 00:54:18;;;;;;;13.90;4.90;;;;;;;1.80;100.00;99977.81;87276;273;22573;-73
2024/02/03 00:56:20;;;;;;;15.20;4.80;;;;;;;1.82;100.00;99975.54;87170;270;136183;-71
2024/02/03 00:58:22;;;;;;;11.80;5.50;;;;;;;1.82;100.00;99974.13;87204;270;25076;-74
2024/02/03 01:00:27;;;;;;;11.90;5.30;;;;;;;1.83;100.00;99971.04;87150;268;136052;-75
2024/02/03 01:02:29;;;;;;;12.80;5.60;;;;;;;1.84;100.00;99975.15;87451;273;22576;-74
2024/02/03 01:04:31;;;;;;;13.80;5.10;;;;;;;1.84;100.00;99976.59;87177;267;136307;-72
2024/02/03 01:06:33;;;;;;;17.20;6.70;;;;;;;1.81;100.00;99978.39;87168;276;23745;-71
2024/02/03 01:08:35;;;;;;;19.60;4.90;;;;;;;1.77;100.00;99983.48;87163;267;137272;-73
2024/02/03 01:10:37;;;;;;;10.80;6.00;;;;;;;1.72;100.00;99976.39;87260;269;22638;-73
2024/02/03 01:12:38;;;;;;;17.30;6.30;;;;;;;1.69;100.00;99969.82;87240;273;136195;-73
2024/02/03 01:14:40;;;;;;;11.20;6.10;;;;;;;1.75;100.00;99965.80;87137;276;22558;-77
2024/02/03 01:16:44;;;;;;;16.80;6.20;;;;;;;1.84;100.00;99962.39;87130;273;137140;-78
2024/02/03 01:18:46;;;;;;;12.40;5.50;;;;;;;1.89;100.00;99962.74;87235;273;22568;-78
2024/02/03 01:20:48;;;;;;;15.90;5.50;;;;;;;1.87;100.00;99954.33;87221;274;136509;-76
2024/02/03 01:22:49;;;;;;;19.10;7.00;;;;;;;1.84;100.00;99946.64;87306;268;24007;-76
2024/02/03 01:24:51;;;;;;;17.40;5.50;;;;;;;1.78;100.00;99938.78;87070;273;136225;-70
2024/02/03 01:26:53;;;;;;;15.40;6.40;;;;;;;1.75;100.00;99931.85;87367;274;22570;-73
2024/02/03 01:28:56;;;;;;;17.20;6.00;;;;;;;1.75;100.00;99921.63;87127;270;137288;-74
2024/02/03 01:30:57;;;;;;;11.60;4.60;;;;;;;1.76;100.00;99910.52;87241;277;25537;-76
2024/02/03 01:32:59;;;;;;;16.60;4.50;;;;;;;1.77;100.00;99908.88;87437;274;136024;-74
2024/02/03 01:35:02;;;;;;;13.40;5.80;;;;;;;1.75;100.00;99903.63;87201;277;23965;-75
2024/02/03 01:37:04;;;;;;;17.20;7.30;;;;;;;1.72;100.00;99903.88;87216;270;136480;-74
2024/02/03 01:39:07;;;;;;;11.00;5.40;;;;;;;1.69;100.00;99898.61;87262;277;22552;-77
2024/02/03 01:41:08;;;;;;;12.80;4.80;;;;;;;1.73;100.00;99893.66;87937;277;136919;-74
2024/02/03 01:43:14;;;;;;;14.70;6.10;;;;;;;1.78;100.00;99894.77;89202;266;22550;-68
2024/02/03 01:45:16;;;;;;;8.90;3.90;;;;;;;1.83;100.00;99887.98;89129;269;136504;-72
2024/02/03 01:47:19;;;;;;;10.70;4.00;;;;;;;1.85;100.00;99882.52;88992;273;22799;-76
2024/02/03 01:49:21;;;;;;;16.50;5.20;;;;;;;1.83;100.00;99876.30;88428;270;135910;-73
2024/02/03 01:51:24;;;;;;;9.70;5.00;;;;;;;1.82;100.00;99869.34;88077;270;25217;-73
2024/02/03 01:53:26;;;;;;;11.80;5.80;;;;;;;1.82;100.00;99861.95;87170;273;137345;-77
2024/02/03 01:55:29;;;;;;;14.20;5.90;;;;;;;1.84;100.00;99856.05;87406;269;25230;-75
2024/02/03 01:57:32;;;;;;;9.40;5.20;;;;;;;1.82;100.00;99850.41;87361;277;137824;-79
2024/02/03 01:59:34;;;;;;;12.50;5.00;;;;;;;1.82;100.00;99849.76;87523;270;22543;-74
2024/02/03 02:01:36;;;;;;;14.10;6.00;;;;;;;1.82;100.00;99844.11;87534;270;136364;-73
2024/02/03 02:03:39;;;;;;;12.30;4.80;;;;;;;1.84;100.00;99837.14;87540;274;22680;-78
2024/02/03 02:05:45;;;;;;;13.60;6.30;;;;;;;1.90;100.00;99830.72;87337;266;136507;-74
2024/02/03 02:07:47;;;;;;;;;;;;;;;2.00;100.00;99833.89;87477;270;25078;-77
2024/02/03 02:09:52;;;;;;;11.80;4.10;;;;;;;2.05;100.00;99834.91;87145;270;123166;-77
2024/02/03 02:11:56;;;;;;;13.50;5.00;;;;;;;2.08;100.00;99833.27;87327;274;25121;-76
2024/02/03 02:13:58;;;;;;;11.80;4.80;;;;;;;2.06;100.00;99830.64;87384;274;135933;-76
2024/02/03 02:16:00;;;;;;;13.10;5.40;;;;;;;2.04;100.00;99830.30;87272;277;24781;-75
2024/02/03 02:18:03;;;;;;;9.80;5.10;;;;;;;2.03;100.00;99837.11;87285;273;22562;-76
2024/02/03 02:20:10;;;;;;;11.40;5.30;;;;;;;2.01;100.00;99829.70;87241;273;135853;-80
2024/02/03 02:22:12;;;;;;;15.30;5.50;;;;;;;1.99;100.00;99823.90;87388;270;25217;-82
2024/02/03 02:24:17;;;;;;;10.00;4.50;;;;;;;2.00;100.00;99824.59;87205;277;136312;-84
2024/02/03 02:26:19;;;;;;;17.00;5.00;;;;;;;1.99;100.00;99820.46;87408;266;22557;-74
2024/02/03 02:28:21;;;;;;;9.10;6.00;;;;;;;1.98;100.00;99819.29;87077;277;136188;-76
2024/02/03 02:30:22;;;;;;;13.40;5.20;;;;;;;1.99;100.00;99819.59;87154;274;24023;-74
2024/02/03 02:32:24;;;;;;;17.70;5.80;;;;;;;2.07;100.00;99816.39;87060;274;136876;-74
2024/02/03 02:34:26;;;;;;;13.00;4.80;;;;;;;2.16;100.00;99810.02;87247;277;25176;-74
2024/02/03 02:36:28;;;;;;;16.90;5.90;;;;;;;2.23;100.00;99811.65;87222;266;136808;-74
2024/02/03 02:38:30;;;;;;;14.20;4.90;;;;;;;2.28;100.00;99810.69;87267;277;25153;-74
2024/02/03 02:40:33;;;;;;;13.10;3.90;;;;;;;2.27;100.00;99807.73;87148;277;136375;-76
2024/02/03 02:42:35;;;;;;;12.00;5.10;;;;;;;2.23;100.00;99802.71;87261;270;22544;-75
2024/02/03 02:44:38;;;;;;;9.90;4.60;;;;;;;2.18;100.00;99794.61;87024;269;137183;-75
2024/02/03 02:46:39;;;;;;;9.90;5.50;;;;;;;2.14;100.00;99788.70;87223;264;24023;-75
2024/02/03 02:48:41;;;;;;;10.50;5.10;;;;;;;2.10;100.00;99783.45;87199;269;135800;-73
2024/02/03 02:50:44;;;;;;;14.80;4.60;;;;;;;2.07;100.00;99774.44;87187;277;25146;-75
2024/02/03 02:52:46;;;;;;;10.00;4.70;;;;;;;2.07;100.00;99776.74;87254;274;137829;-74
2024/02/03 02:54:47;;;;;;;10.10;4.60;;;;;;;2.15;100.00;99777.22;87215;270;24100;-77
2024/02/03 02:56:49;;;;;;;21.20;5.30;;;;;;;2.22;100.00;99769.31;87037;269;139338;-74
2024/02/03 02:58:51;;;;;;;13.30;4.70;;;;;;;2.26;100.00;99762.80;87389;270;25121;-75
2024/02/03 03:00:53;;;;;;;13.30;4.10;;;;;;;2.24;100.00;99757.25;87094;270;136229;-74
2024/02/03 03:02:56;;;;;;;13.30;5.30;;;;;;;2.19;100.00;99764.18;87433;269;25146;-72
2024/02/03 03:04:58;;;;;;;11.20;5.90;;;;;;;2.16;100.00;99750.83;87221;269;136568;-73
2024/02/03 03:07:00;;;;;;;9.70;5.20;;;;;;;2.11;100.00;99749.20;87342;269;25099;-72
2024/02/03 03:09:01;;;;;;;17.90;6.30;;;;;;;2.05;100.00;99746.58;87007;269;135993;-73
2024/02/03 03:11:03;;;;;;;14.50;5.00;;;;;;;2.03;100.00;99738.77;87159;267;23201;-75
2024/02/03 03:13:05;;;;;;;11.80;5.20;;;;;;;2.07;100.00;99732.60;87086;265;137976;-72
2024/02/03 03:15:08;;;;;;;9.60;4.80;;;;;;;2.14;100.00;99726.96;87252;273;24167;-73
2024/02/03 03:17:10;;;;;;;9.60;4.90;;;;;;;2.19;100.00;99719.85;87211;274;136694;-74
2024/02/03 03:19:13;;;;;;;12.50;5.70;;;;;;;2.15;100.00;99715.69;87209;270;25089;-74
2024/02/03 03:21:15;;;;;;;15.10;5.50;;;;;;;2.08;100.00;99715.08;87125;262;136346;-73
2024/02/03 03:23:17;;;;;;;13.40;5.90;;;;;;;2.04;100.00;99711.77;87304;272;25291;-73
2024/02/03 03:25:20;;;;;;;14.60;6.30;;;;;;;2.03;100.00;99703.20;87264;273;136035;-73
2024/02/03 03:27:21;;;;;;;14.60;5.30;;;;;;;2.00;100.00;99696.27;87264;273;22558;-72
2024/02/03 03:29:23;;;;;;;9.70;4.90;;;;;;;2.05;100.00;99685.62;87218;270;137896;-74
2024/02/03 03:31:27;;;;;;;15.40;4.90;;;;;;;2.13;100.00;99689.90;87238;273;25147;-80
2024/02/03 03:33:29;;;;;;;8.70;3.30;;;;;;;2.19;100.00;99681.86;87140;273;138029;-74
2024/02/03 03:35:31;;;;;;;14.50;4.50;;;;;;;2.19;100.00;99684.30;87296;273;22782;-74
2024/02/03 03:37:32;;;;;;;10.80;5.00;;;;;;;2.13;100.00;99686.36;87158;269;136122;-74
2024/02/03 03:39:35;;;;;;;12.40;4.40;;;;;;;2.10;100.00;99683.72;87226;277;23774;-74
2024/02/03 03:41:36;;;;;;;11.70;5.10;;;;;;;2.06;100.00;99678.38;87071;273;136023;-73
2024/02/03 03:43:38;;;;;;;12.10;5.40;;;;;;;2.04;100.00;99675.91;87226;273;22590;-74
2024/02/03 03:45:40;;;;;;;13.80;4.70;;;;;;;2.09;100.00;99670.31;87177;270;138010;-74
2024/02/03 03:47:42;;;;;;;11.60;5.30;;;;;;;2.14;100.00;99661.91;87141;271;22586;-75
2024/02/03 03:49:44;;;;;;;15.90;5.90;;;;;;;2.14;100.00;99664.90;87270;268;136481;-75
2024/02/03 03:51:46;;;;;;;15.60;4.50;;;;;;;2.09;100.00;99657.30;87170;269;25212;-74
2024/02/03 03:53:48;;;;;;;17.00;5.30;;;;;;;2.06;100.00;99649.60;87194;266;137430;-74
2024/02/03 03:55:52;;;;;;;11.10;4.70;;;;;;;2.03;100.00;99644.10;87354;270;22572;-75
2024/02/03 03:57:54;;;;;;;7.00;4.50;;;;;;;2.00;100.00;99648.91;87276;270;136428;-74
2024/02/03 03:59:56;;;;;;;10.80;4.50;;;;;;;2.03;100.00;99647.75;87249;265;24068;-72
2024/02/03 04:01:57;;;;;;;16.30;6.70;;;;;;;2.05;100.00;99641.08;87199;271;138137;-74
2024/02/03 04:04:00;;;;;;;12.70;5.50;;;;;;;2.06;100.00;99632.59;87278;269;24247;-75
2024/02/03 04:06:02;;;;;;;10.70;6.20;;;;;;;2.02;100.00;99634.78;87166;269;135759;-74
2024/02/03 04:08:06;;;;;;;17.30;6.50;;;;;;;1.92;100.00;99630.95;87281;260;136330;-74
2024/02/03 04:10:08;;;;;;;13.80;5.90;;;;;;;1.83;100.00;99627.98;87428;266;25255;-74
2024/02/03 04:14:26;;;;;;;13.50;5.60;;;;;;;1.64;100.00;99617.24;85021;303;602172;-74
2024/02/03 04:16:27;;;;;;;18.40;6.30;;;;;;;1.69;100.00;99610.77;87094;269;136247;-73
2024/02/03 04:18:29;;;;;;;17.30;5.90;;;;;;;1.73;100.00;99604.42;87313;266;22693;-74
2024/02/03 04:20:31;;;;;;;11.60;4.60;;;;;;;1.72;100.00;99595.06;87239;270;137108;-75
2024/02/03 04:22:33;;;;;;;9.60;5.00;;;;;;;1.66;100.00;99595.19;87102;268;22563;-75
2024/02/03 04:24:35;;;;;;;9.30;4.50;;;;;;;1.56;100.00;99594.17;87151;271;135150;-76
2024/02/03 04:26:37;;;;;;;10.60;5.20;;;;;;;1.47;100.00;99589.42;87272;272;25224;-74
2024/02/03 04:28:38;;;;;;;9.90;6.60;;;;;;;1.41;100.00;99582.87;86692;273;716829;-77
2024/02/03 04:30:43;;;;;;;14.30;5.50;;;;;;;1.44;100.00;99579.80;87281;277;22555;-78
2024/02/03 04:32:45;;;;;;;10.80;4.80;;;;;;;1.48;100.00;99572.23;87188;273;136845;-74
2024/02/03 04:34:47;;;;;;;12.70;4.50;;;;;;;1.50;100.00;99570.80;87322;273;22677;-73
2024/02/03 04:36:49;;;;;;;12.70;6.00;;;;;;;1.48;100.00;99566.44;87360;270;139969;-72
2024/02/03 04:38:51;;;;;;;13.60;5.80;;;;;;;1.42;100.00;99563.19;87477;276;22570;-78
2024/02/03 04:40:53;;;;;;;17.50;6.50;;;;;;;1.35;100.00;99552.76;87276;272;135658;-75
2024/02/03 04:42:55;;;;;;;14.90;6.80;;;;;;;1.32;100.00;99547.77;87351;273;22565;-75
2024/02/03 04:44:57;;;;;;;10.10;5.20;;;;;;;1.39;100.00;99532.50;87295;269;137703;-74
2024/02/03 04:46:59;;;;;;;9.90;5.80;;;;;;;1.45;100.00;99528.18;87422;266;22549;-75
2024/02/03 04:49:01;;;;;;;13.70;5.80;;;;;;;1.48;100.00;99519.86;87216;270;136312;-74
2024/02/03 04:51:04;;;;;;;10.20;4.50;;;;;;;1.50;100.00;99517.02;87864;270;22555;-74
2024/02/03 04:53:06;;;;;;;17.60;6.90;;;;;;;1.50;100.00;99513.19;88433;265;136793;-73
2024/02/03 04:55:08;;;;;;;11.60;6.30;;;;;;;1.44;100.00;99503.02;89172;273;24728;-73
2024/02/03 04:57:10;;;;;;;12.30;6.20;;;;;;;1.41;100.00;99500.27;88695;268;136007;-74
2024/02/03 04:59:12;;;;;;;14.90;5.60;;;;;;;1.47;100.00;99496.48;89161;269;22495;-75
2024/02/03 05:01:14;;;;;;;11.60;5.20;;;;;;;1.56;100.00;99490.35;88593;265;136313;-73
2024/02/03 05:03:17;;;;;;;10.40;5.60;;;;;;;1.60;100.00;99475.76;88527;267;22714;-75
2024/02/03 05:05:19;;;;;;;20.30;7.00;;;;;;;1.61;100.00;99468.49;88338;273;136060;-74
2024/02/03 05:07:20;;;;;;;15.10;5.90;;;;;;;1.54;100.00;99461.64;87973;268;23649;-74
2024/02/03 05:09:23;;;;;;;14.10;6.00;;;;;;;1.48;100.00;99451.61;88478;273;135994;-73
2024/02/03 05:11:25;;;;;;;15.20;6.90;;;;;;;1.47;100.00;99446.80;88291;273;22865;-75
2024/02/03 05:13:28;;;;;;;10.40;6.00;;;;;;;1.49;100.00;99444.92;87692;269;137858;-72
2024/02/03 05:15:30;;;;;;;9.90;6.20;;;;;;;1.50;100.00;99441.55;87735;269;24170;-74
2024/02/03 05:17:33;;;;;;;11.50;5.70;;;;;;;1.50;100.00;99437.34;87455;277;136293;-75
2024/02/03 05:19:35;;;;;;;10.10;5.50;;;;;;;1.47;100.00;99430.14;87712;269;25131;-75
2024/02/03 05:21:37;;;;;;;9.00;5.10;;;;;;;1.41;100.00;99427.56;87438;270;135939;-75
2024/02/03 05:23:39;;;;;;;12.40;6.10;;;;;;;1.31;100.00;99426.81;87352;269;24592;-76
2024/02/03 05:25:41;;;;;;;15.40;6.00;;;;;;;1.30;100.00;99427.04;87171;272;136438;-76
2024/02/03 05:27:43;;;;;;;12.40;5.80;;;;;;;1.34;100.00;99418.24;87344;264;22552;-75
2024/02/03 05:29:45;;;;;;;8.80;5.20;;;;;;;1.38;100.00;99417.39;87313;269;140150;-75
2024/02/03 05:31:46;;;;;;;15.50;6.20;;;;;;;1.39;100.00;99410.24;87209;269;22560;-74
2024/02/03 05:33:48;;;;;;;13.80;6.20;;;;;;;1.44;100.00;99417.86;87214;270;137535;-74
2024/02/03 05:35:50;;;;;;;11.40;5.40;;;;;;;1.44;100.00;99419.54;87118;273;24870;-77
2024/02/03 05:37:53;;;;;;;11.80;6.00;;;;;;;1.41;100.00;99418.14;87099;269;135610;-76
2024/02/03 05:39:54;;;;;;;13.10;5.90;;;;;;;1.37;100.00;99413.11;87143;270;22640;-74
2024/02/03 05:41:56;;;;;;;13.40;6.10;;;;;;;1.33;100.00;99402.79;89798;272;135907;-74
2024/02/03 05:43:58;;;;;;;13.50;6.10;;;;;;;1.38;100.00;99393.55;87136;279;25093;-74
2024/02/03 05:46:00;;;;;;;8.50;5.90;;;;;;;1.40;100.00;99391.61;87005;267;136321;-74
2024/02/03 05:48:05;;;;;;;9.60;6.30;;;;;;;1.43;100.00;99392.69;87219;270;136603;-74
2024/02/03 05:50:07;;;;;;;13.50;6.20;;;;;;;1.43;100.00;99388.34;87302;269;25131;-75
2024/02/03 05:52:09;;;;;;;14.80;6.80;;;;;;;1.43;100.00;99388.68;87142;269;138596;-73
2024/02/03 05:54:10;;;;;;;12.00;6.80;;;;;;;1.44;100.00;99394.16;87209;275;22565;-73
2024/02/03 05:56:12;;;;;;;11.00;6.20;;;;;;;1.42;100.00;99400.48;87090;275;137078;-74
2024/02/03 05:58:15;;;;;;;7.90;4.80;;;;;;;1.40;100.00;99397.05;87195;270;22556;-74
2024/02/03 06:00:18;;;;;;;8.20;6.30;;;;;;;1.37;100.00;99391.00;87103;267;135491;-73
2024/02/03 06:02:20;;;;;;;8.90;5.60;;;;;;;1.41;100.00;99381.77;87150;280;24297;-73
2024/02/03 06:04:22;;;;;;;11.30;5.50;;;;;;;1.48;100.00;99377.84;87150;270;136370;-74
2024/02/03 06:06:24;;;;;;;6.10;4.70;;;;;;;1.54;100.00;99382.89;87085;268;22571;-76
2024/02/03 06:08:32;;;;;;;7.70;5.20;;;;;;;1.56;100.00;99378.44;87148;264;135841;-75
2024/02/03 06:10:34;;;;;;;7.40;5.20;;;;;;;1.51;100.00;99378.39;87328;273;23746;-75
2024/02/03 06:12:36;;;;;;;14.40;7.20;;;;;;;1.47;100.00;99378.33;87167;269;135729;-75
2024/02/03 06:14:40;;;;;;;9.70;6.20;;;;;;;1.49;100.00;99377.39;87249;269;26370;-73
2024/02/03 06:16:42;;;;;;;8.50;5.70;;;;;;;1.57;100.00;99381.52;87105;273;136290;-75
2024/02/03 06:18:44;;;;;;;7.50;5.30;;;;;;;1.64;100.00;99380.84;87178;270;22564;-75
2024/02/03 06:20:47;;;;;;;10.70;6.10;;;;;;;1.68;100.00;99373.19;87135;269;135768;-75
2024/02/03 06:22:49;;;;;;;5.70;5.20;;;;;;;1.66;100.00;99365.75;87314;276;22564;-75
2024/02/03 06:24:51;;;;;;;6.00;5.10;;;;;;;1.59;100.00;99351.69;87032;269;136978;-74
2024/02/03 06:26:53;;;;;;;6.00;4.60;;;;;;;1.56;100.00;99344.65;87143;270;26195;-74
2024/02/03 06:28:55;;;;;;;6.60;4.80;;;;;;;1.61;100.00;99331.34;87057;273;136533;-72
2024/02/03 06:30:56;;;;;;;7.60;6.20;;;;;;;1.63;100.00;99332.05;87122;275;22564;-77
2024/02/03 06:32:59;;;;;;;8.00;5.00;;;;;;;1.65;100.00;99332.91;87123;272;137925;-74
2024/02/03 06:35:01;;;;;;;8.50;5.50;;;;;;;1.65;100.00;99323.65;88463;272;24036;-75
2024/02/03 06:37:04;;;;;;;7.90;5.20;;;;;;;1.66;100.00;99321.42;87126;269;136374;-74
2024/02/03 06:39:07;;;;;;;7.30;5.30;;;;;;;1.62;100.00;99315.13;87206;273;22560;-74
2024/02/03 06:41:14;;;;;;;8.00;5.60;;;;;;;1.55;100.00;99310.56;87263;265;135763;-74
2024/02/03 06:43:16;;;;;;;7.70;5.60;;;;;;;1.50;100.00;99306.56;87207;269;24248;-74
2024/02/03 06:45:19;;;;;;;7.80;5.20;;;;;;;1.54;100.00;99315.48;87048;273;136412;-75
2024/02/03 06:47:21;;;;;;;6.60;4.70;;;;;;;1.60;100.00;99307.84;87261;273;22564;-73
2024/02/03 06:49:24;;;;;;;5.30;4.50;;;;;;;1.65;100.00;99309.44;87160;273;136192;-74
2024/02/03 06:51:26;;;;;;;7.30;6.00;;;;;;;1.65;100.00;99305.39;87270;274;24340;-74
2024/02/03 06:53:28;;;;;;;8.00;6.10;;;;;;;1.59;100.00;99306.18;87050;274;135608;-75
2024/02/03 06:55:29;;;;;;;7.80;5.50;;;;;;;1.55;100.00;99303.80;87217;273;23739;-75
2024/02/03 06:57:31;;;;;;;6.50;4.50;;;;;;;1.58;100.00;99302.77;87195;267;137210;-74
2024/02/03 06:59:33;;;;;;;6.30;4.70;;;;;;;1.64;100.00;99292.05;87275;268;25105;-73
2024/02/03 07:01:35;;;;;;;7.40;4.60;;;;;;;1.67;100.00;99278.62;87203;269;136284;-75
2024/02/03 07:03:37;;;;;;;6.50;4.80;;;;;;;1.69;100.00;99274.16;87270;269;24013;-73
2024/02/03 07:05:40;;;;;;;7.30;5.50;;;;;;;1.71;100.00;99273.98;87095;270;136363;-73
2024/02/03 07:07:42;;;;;;;6.80;5.60;;;;;;;1.68;100.00;99276.68;87402;273;26182;-75
2024/02/03 07:09:43;;;;;;;5.70;5.30;;;;;;;1.63;100.00;99267.76;86944;271;138013;-73
2024/02/03 07:11:45;;;;;;;10.30;6.30;;;;;;;1.60;100.00;99264.45;87322;270;22556;-75
2024/02/03 07:14:02;;;;;;;6.90;4.90;;;;;;;1.64;100.00;99263.85;86978;274;136520;-74
2024/02/03 07:16:05;;;;;;;7.50;5.80;;;;;;;1.68;100.00;99258.52;87485;275;138184;-76
2024/02/03 07:18:07;;;;;;;10.00;7.00;;;;;;;1.73;100.00;99262.75;87463;268;22557;-74
2024/02/03 07:20:09;;;;;;;7.10;6.00;;;;;;;1.79;100.00;99261.06;87308;268;137532;-74
2024/02/03 07:22:12;;;;;;;11.20;7.60;;;;;;;1.75;100.00;99254.67;87241;268;25076;-75
2024/02/03 07:24:14;;;;;;;10.10;7.30;;;;;;;1.73;100.00;99258.90;87117;273;137676;-75
2024/02/03 07:26:16;;;;;;;9.90;7.20;;;;;;;1.81;100.00;99246.33;87235;270;24538;-74
2024/02/03 07:28:18;;;;;;;9.80;6.10;;;;;;;1.91;100.00;99244.09;87111;264;136603;-73
2024/02/03 07:30:22;;;;;;;10.30;5.50;;;;;;;1.94;100.00;99235.49;87358;271;24027;-78
2024/02/03 07:32:26;;;;;;;8.80;5.10;;;;;;;1.95;100.00;99231.88;87178;267;136358;-71
2024/02/03 07:34:28;;;;;;;10.20;6.60;;;;;;;1.94;100.00;99233.71;87228;272;26294;-77
2024/02/03 07:36:30;;;;;;;13.30;7.50;;;;;;;1.93;100.00;99231.38;87305;268;135836;-77
2024/02/03 07:38:32;;;;;;;7.20;6.30;;;;;;;1.91;100.00;99227.87;87302;272;24198;-77
2024/02/03 07:40:35;;;;;;;6.10;5.50;;;;;;;1.96;100.00;99221.45;87133;274;136309;-74
2024/02/03 07:42:36;;;;;;;8.10;7.20;;;;;;;1.97;100.00;99221.54;87274;272;22719;-76
2024/02/03 07:44:39;;;;;;;5.50;5.00;;;;;;;2.02;100.00;99218.73;87040;277;136546;-75
2024/02/03 07:46:41;;;;;;;7.10;6.40;;;;;;;2.02;100.00;99216.96;87217;264;23396;-75
2024/02/03 07:48:42;;;;;;;9.50;6.60;;;;;;;2.03;100.00;99208.67;87181;273;136285;-75
2024/02/03 07:50:45;;;;;;;7.40;5.50;;;;;;;2.00;100.00;99215.63;87271;268;25124;-76
2024/02/03 07:52:46;;;;;;;8.70;6.10;;;;;;;2.07;100.00;99217.00;87200;268;136978;-78
2024/02/03 07:54:48;;;;;;;6.50;4.90;;;;;;;2.14;100.00;99212.05;87221;270;22633;-74
2024/02/03 07:56:50;;;;;;;6.30;5.50;;;;;;;2.17;100.00;99201.08;87354;272;136758;-74
2024/02/03 07:58:54;;;;;;;6.50;5.90;;;;;;;2.17;100.00;99189.50;87255;268;24012;-74
2024/02/03 08:00:56;;;;;;;6.80;6.10;;;;;;;2.14;100.00;99188.39;87178;273;136292;-77
2024/02/03 08:02:58;;;;;;;7.00;6.20;;;;;;;2.10;100.00;99185.82;87312;273;22565;-76
2024/02/03 08:05:01;;;;;;;8.60;6.70;;;;;;;2.07;100.00;99182.41;87242;273;136258;-75
2024/02/03 08:07:03;;;;;;;10.00;7.50;;;;;;;2.10;100.00;99176.13;87302;269;22574;-74
2024/02/03 08:09:06;;;;;;;7.80;6.40;;;;;;;2.20;100.00;99177.13;87359;268;136979;-76
2024/02/03 08:11:11;;;;;;;7.30;5.60;;;;;;;2.27;100.00;99175.06;87190;273;22560;-77
2024/02/03 08:13:13;;;;;;;7.10;5.70;;;;;;;2.33;100.00;99176.15;87294;277;136673;-77
2024/02/03 08:15:15;;;;;;;9.20;6.70;;;;;;;2.33;100.00;99175.33;87304;273;25181;-76
2024/02/03 08:17:17;;;;;;;8.20;6.40;;;;;;;2.30;100.00;99171.32;87252;272;136333;-76
2024/02/03 08:19:18;;;;;;;7.10;6.40;;;;;;;2.29;100.00;99168.92;87077;269;22571;-73
2024/02/03 08:21:20;;;;;;;8.80;6.10;;;;;;;2.31;100.00;99163.40;87120;277;135538;-74
2024/02/03 08:23:22;;;;;;;9.20;6.20;;;;;;;2.38;100.00;99152.42;87731;264;26000;-74
2024/02/03 08:25:25;;;;;;;5.90;5.30;;;;;;;2.46;100.00;99148.37;87610;264;136854;-74
2024/02/03 08:27:27;;;;;;;6.30;5.00;;;;;;;2.48;100.00;99143.51;87574;264;25281;-74
2024/02/03 08:29:29;;;;;;;8.00;5.20;;;;;;;2.51;100.00;99138.89;87219;267;136401;-73
2024/02/03 08:31:31;;;;;;;7.10;5.60;;;;;;;2.48;100.00;99139.85;87243;266;23665;-75
2024/02/03 08:33:32;;;;;;;5.40;5.00;;;;;;;2.44;100.00;99136.57;87263;267;136212;-74
2024/02/03 08:35:34;;;;;;;5.80;5.30;;;;;;;2.42;100.00;99134.73;87247;266;25190;-76
2024/02/03 08:37:37;;;;;;;9.60;5.90;;;;;;;2.37;100.00;99129.67;87166;273;137056;-76
2024/02/03 08:39:39;;;;;;;8.90;5.80;;;;;;;2.39;100.00;99115.80;87309;270;25252;-74
2024/02/03 08:41:43;;;;;;;6.80;5.20;;;;;;;2.47;100.00;99109.84;87163;272;136805;-73
2024/02/03 08:43:46;;;;;;;5.60;4.90;;;;;;;2.51;100.00;99111.11;87250;268;22560;-74
2024/02/03 08:45:47;;;;;;;6.30;4.70;;;;;;;2.53;100.00;99118.08;87184;271;138025;-74
2024/02/03 08:47:50;;;;;;;5.00;4.50;;;;;;;2.51;100.00;99120.55;87403;273;23687;-76
2024/02/03 08:49:53;;;;;;;5.80;5.30;;;;;;;2.48;100.00;99115.17;87283;269;135207;-75
2024/02/03 08:51:55;;;;;;;6.50;5.90;;;;;;;2.44;100.00;99109.65;87409;276;25184;-75
2024/02/03 08:53:57;;;;;;;7.10;5.00;;;;;;;2.45;100.00;99098.52;87318;270;136171;-74
2024/02/03 08:55:58;;;;;;;6.00;5.00;;;;;;;2.53;100.00;99095.00;87246;268;22583;-73
2024/02/03 08:58:00;;;;;;;8.10;4.80;;;;;;;2.64;100.00;99091.33;87128;272;136550;-73
2024/02/03 09:00:04;;;;;;;5.40;4.80;;;;;;;2.71;100.00;99088.82;87261;272;23997;-76
2024/02/03 09:02:06;;;;;;;6.50;4.80;;;;;;;2.78;100.00;99082.39;87492;271;22564;-75
2024/02/03 09:04:09;;;;;;;5.10;4.60;;;;;;;2.80;100.00;99080.41;87381;263;136697;-72
2024/02/03 09:06:13;;;;;;;6.90;5.60;;;;;;;2.78;100.00;99072.29;87416;272;22705;-74
2024/02/03 09:08:15;;;;;;;6.20;5.60;;;;;;;2.77;100.00;99065.79;87224;268;135907;-71
2024/02/03 09:10:18;;;;;;;7.80;6.70;;;;;;;2.74;100.00;99058.31;87322;269;22619;-73
2024/02/03 09:12:20;;;;;;;5.60;5.10;;;;;;;2.80;100.00;99057.96;87654;267;136723;-74
2024/02/03 09:14:22;;;;;;;6.40;5.80;;;;;;;2.88;100.00;99059.36;87448;268;26236;-73
2024/02/03 09:16:24;;;;;;;7.00;5.00;;;;;;;2.94;100.00;99047.33;87210;275;137248;-75
2024/02/03 09:18:26;;;;;;;5.70;5.20;;;;;;;2.99;100.00;99039.06;87528;271;23238;-74
2024/02/03 09:20:28;;;;;;;6.30;5.00;;;;;;;3.03;100.00;99040.71;87720;268;137367;-75
2024/02/03 09:22:30;;;;;;;5.30;4.60;;;;;;;3.06;100.00;99035.99;87480;264;25239;-73
2024/02/03 09:24:32;;;;;;;5.50;5.00;;;;;;;3.06;100.00;99026.71;87343;265;135818;-71
2024/02/03 09:26:39;;;;;;;9.40;6.10;;;;;;;3.07;100.00;99017.98;87527;276;22768;-74
2024/02/03 09:28:40;;;;;;;6.20;5.10;;;;;;;3.16;100.00;99014.65;87288;276;138193;-77
2024/02/03 09:30:43;;;;;;;7.50;5.40;;;;;;;3.24;100.00;99012.59;87378;273;25089;-73
2024/02/03 09:32:45;;;;;;;4.70;4.30;;;;;;;3.31;100.00;99017.08;87603;260;136750;-72
2024/02/03 09:34:48;;;;;;;8.00;6.60;;;;;;;3.39;100.00;99015.93;87742;272;25274;-75
2024/02/03 09:36:50;;;;;;;7.30;6.10;;;;;;;3.43;100.00;99007.08;87649;272;136191;-73